Time;durP1;ratioP1;P1;durP2;ratioP2;P2;SDS_P1;SDS_P2;PMS_P1;PMS_P2;Temp;Humidity;BMP_temperature;BMP_pressure;BME280_temperature;BME280_humidity;BME280_pressure;Samples;Min_cycle;Max_cycle;Signal;HPM_P1;HPM_P2
2021/11/07 00:05:06;;;;;;;17.27;9.13;;;;;;;5.09;75.79;96354.50;4969331;28;20202;-81
2021/11/07 00:07:42;;;;;;;12.87;8.93;;;;;;;5.12;76.10;96356.81;4971969;28;20234;-82
2021/11/07 00:10:13;;;;;;;12.90;9.70;;;;;;;5.09;76.49;96357.88;4955692;29;20210;-82
2021/11/07 00:12:42;;;;;;;11.43;10.17;;;;;;;5.16;76.45;96361.56;4955740;29;20207;-81
2021/11/07 00:15:11;;;;;;;18.23;10.17;;;;;;;5.16;76.28;96358.19;4955041;29;20349;-83
2021/11/07 00:17:38;;;;;;;11.60;10.40;;;;;;;5.24;76.00;96348.16;4954672;28;20292;-84
2021/11/07 00:20:10;;;;;;;12.83;10.00;;;;;;;5.28;75.75;96358.94;4955462;29;20231;-81
2021/11/07 00:22:48;;;;;;;11.67;9.80;;;;;;;5.34;75.68;96366.09;4954330;28;20248;-84
2021/11/07 00:25:20;;;;;;;15.70;10.30;;;;;;;5.33;75.45;96372.94;4954506;29;20204;-82
2021/11/07 00:27:51;;;;;;;10.80;9.70;;;;;;;5.32;75.38;96375.63;4955603;28;20217;-81
2021/11/07 00:30:24;;;;;;;17.50;9.90;;;;;;;5.33;75.37;96367.03;4955791;29;20201;-83
2021/11/07 00:33:02;;;;;;;12.00;10.57;;;;;;;5.34;75.50;96377.13;4955875;29;20244;-81
2021/11/07 00:38:17;;;;;;;11.27;10.10;;;;;;;5.36;76.45;96382.09;4954820;28;20590;-84
2021/11/07 00:40:48;;;;;;;11.23;10.13;;;;;;;5.36;76.33;96377.81;4955146;29;20584;-83
2021/11/07 00:43:20;;;;;;;11.50;10.30;;;;;;;5.39;77.18;96384.38;4956167;28;20201;-84
2021/11/07 00:45:58;;;;;;;11.27;10.17;;;;;;;5.46;77.04;96375.28;4958950;29;20295;-83
2021/11/07 00:48:28;;;;;;;11.40;10.20;;;;;;;5.48;77.16;96376.78;4974514;28;20313;-84
2021/11/07 00:51:02;;;;;;;11.70;10.50;;;;;;;5.49;76.90;96382.72;4977699;28;20207;-83
2021/11/07 00:56:29;;;;;;;12.20;10.80;;;;;;;5.44;78.02;96408.63;4962246;28;20348;-81
2021/11/07 00:59:10;;;;;;;15.40;10.90;;;;;;;5.35;78.46;96393.25;4977638;28;20703;-81
2021/11/07 01:01:41;;;;;;;13.27;11.20;;;;;;;5.28;79.19;96387.00;4977668;28;20304;-82
2021/11/07 01:04:11;;;;;;;14.23;11.27;;;;;;;5.24;79.69;96381.34;4977446;28;20207;-80
2021/11/07 01:06:41;;;;;;;13.67;12.03;;;;;;;5.29;79.64;96396.28;4977836;28;20619;-84
2021/11/07 01:09:07;;;;;;;17.47;11.67;;;;;;;5.26;80.35;96388.88;4962555;28;20637;-82
2021/11/07 01:11:35;;;;;;;16.70;11.80;;;;;;;5.34;80.05;96392.44;4958287;29;20244;-83
2021/11/07 01:14:01;;;;;;;12.57;11.27;;;;;;;5.44;80.25;96398.41;4957899;29;20205;-82
2021/11/07 01:16:28;;;;;;;15.47;12.27;;;;;;;5.39;81.09;96395.41;4958092;29;20211;-84
2021/11/07 01:18:55;;;;;;;13.83;12.33;;;;;;;5.44;80.83;96392.47;4957750;28;20228;-81
2021/11/07 01:21:21;;;;;;;31.17;25.33;;;;;;;5.51;81.03;96388.50;4958206;29;20208;-83
2021/11/07 01:23:55;;;;;;;23.70;17.60;;;;;;;5.59;80.42;96382.75;4957647;28;20601;-82
2021/11/07 01:26:25;;;;;;;14.20;12.70;;;;;;;5.64;80.53;96375.53;4957905;29;20208;-82
2021/11/07 01:28:58;;;;;;;13.83;12.33;;;;;;;5.69;80.26;96373.41;4957379;28;20225;-82
2021/11/07 01:31:26;;;;;;;20.53;13.70;;;;;;;5.64;80.64;96375.53;4957227;29;20344;-82
2021/11/07 01:33:54;;;;;;;18.40;12.77;;;;;;;5.59;81.62;96375.09;4957839;29;20211;-80
2021/11/07 01:36:30;;;;;;;14.63;13.13;;;;;;;5.57;82.09;96365.03;4957370;29;20299;-81
2021/11/07 01:39:06;;;;;;;16.50;13.30;;;;;;;5.57;82.11;96352.25;4957362;28;20869;-82
2021/11/07 01:41:38;;;;;;;18.53;14.50;;;;;;;5.51;82.76;96343.34;4957383;29;20224;-81
2021/11/07 01:44:05;;;;;;;22.23;14.10;;;;;;;5.42;84.01;96335.63;4957194;29;20588;-79
2021/11/07 01:46:33;;;;;;;16.73;14.47;;;;;;;5.39;84.40;96344.34;4957266;28;20216;-81
2021/11/07 01:49:04;;;;;;;20.73;14.67;;;;;;;5.42;83.64;96336.44;4976991;28;20238;-80
2021/11/07 01:51:33;;;;;;;15.23;13.50;;;;;;;5.49;83.32;96335.00;4976447;28;20200;-80
2021/11/07 01:54:10;;;;;;;14.93;13.33;;;;;;;5.55;83.59;96331.13;4975646;28;20240;-81
2021/11/07 01:56:37;;;;;;;16.37;13.33;;;;;;;5.48;83.72;96330.00;4975827;28;20266;-81
2021/11/07 01:59:04;;;;;;;17.10;13.87;;;;;;;5.54;82.95;96332.88;4976755;28;20223;-82
2021/11/07 02:01:30;;;;;;;16.07;14.00;;;;;;;5.57;83.16;96331.00;4976612;28;20204;-82
2021/11/07 02:03:57;;;;;;;18.10;13.17;;;;;;;5.61;82.61;96319.59;4976768;28;20730;-82
2021/11/07 02:06:23;;;;;;;14.43;12.43;;;;;;;5.51;82.90;96314.44;4976189;28;20564;-82
2021/11/07 02:08:49;;;;;;;15.67;13.40;;;;;;;5.38;83.07;96307.00;4963822;28;20795;-80
2021/11/07 02:11:18;;;;;;;15.07;13.13;;;;;;;5.35;82.92;96317.47;4957273;29;20212;-83
2021/11/07 02:13:46;;;;;;;14.33;12.43;;;;;;;5.32;82.83;96325.38;4957555;29;20698;-84
2021/11/07 02:16:13;;;;;;;13.67;12.10;;;;;;;5.29;82.86;96325.63;4956880;29;20216;-82
2021/11/07 02:18:40;;;;;;;14.83;13.00;;;;;;;5.35;82.14;96326.88;4956620;28;20612;-83
2021/11/07 02:21:08;;;;;;;13.00;11.60;;;;;;;5.31;82.26;96312.72;4956720;29;20197;-83
2021/11/07 02:23:35;;;;;;;15.30;12.03;;;;;;;5.28;81.92;96315.53;4956232;28;20236;-82
2021/11/07 02:26:04;;;;;;;13.60;12.17;;;;;;;5.36;81.72;96305.50;4956917;29;20234;-82
2021/11/07 02:28:33;;;;;;;14.07;12.50;;;;;;;5.47;81.80;96296.00;4956573;28;20225;-83
2021/11/07 02:31:00;;;;;;;12.57;11.20;;;;;;;5.40;81.27;96299.19;4956125;29;20201;-82
2021/11/07 02:33:27;;;;;;;12.57;11.27;;;;;;;5.34;81.47;96290.31;4956561;29;20224;-80
2021/11/07 02:35:54;;;;;;;12.87;11.47;;;;;;;5.42;80.87;96287.09;4956008;29;20557;-84
2021/11/07 02:38:22;;;;;;;13.20;11.80;;;;;;;5.31;81.58;96270.13;4955356;28;20224;-80
2021/11/07 02:40:48;;;;;;;13.27;11.87;;;;;;;5.22;82.15;96274.25;4955790;29;20205;-81
2021/11/07 02:43:15;;;;;;;14.43;12.10;;;;;;;5.24;82.46;96273.31;4955962;29;20205;-83
2021/11/07 02:45:41;;;;;;;13.63;12.17;;;;;;;5.28;82.72;96277.22;4955883;29;20212;-82
2021/11/07 02:48:08;;;;;;;14.13;11.83;;;;;;;5.29;82.77;96282.22;4968286;28;20250;-80
2021/11/07 02:50:35;;;;;;;12.43;11.13;;;;;;;5.31;82.44;96267.56;4975124;28;20255;-83
2021/11/07 02:53:01;;;;;;;16.17;12.27;;;;;;;5.38;81.47;96273.00;4974562;28;20299;-82
2021/11/07 02:55:29;;;;;;;12.00;10.73;;;;;;;5.36;81.52;96269.75;4975196;28;20207;-83
2021/11/07 02:58:00;;;;;;;13.40;11.77;;;;;;;5.33;81.41;96278.47;4974707;28;20227;-80
2021/11/07 03:00:29;;;;;;;11.17;9.83;;;;;;;5.16;81.31;96271.41;4974871;28;20549;-81
2021/11/07 03:02:56;;;;;;;11.27;9.77;;;;;;;5.10;81.16;96270.16;4974662;28;20298;-79
2021/11/07 03:05:23;;;;;;;11.00;9.87;;;;;;;5.09;80.75;96245.56;4973652;28;20267;-81
2021/11/07 03:07:51;;;;;;;10.30;8.93;;;;;;;5.06;79.80;96233.03;4971122;28;20220;-82
2021/11/07 03:10:18;;;;;;;10.87;9.43;;;;;;;4.96;80.28;96247.50;4955898;29;20229;-84
2021/11/07 03:12:46;;;;;;;9.17;8.23;;;;;;;4.80;80.15;96242.06;4959073;28;20267;-82
2021/11/07 03:15:13;;;;;;;9.50;8.50;;;;;;;4.83;80.04;96237.47;4974778;28;20208;-81
2021/11/07 03:17:40;;;;;;;8.70;7.83;;;;;;;4.79;79.56;96237.88;4966155;28;20233;-81
2021/11/07 03:20:10;;;;;;;9.50;8.50;;;;;;;4.69;79.78;96216.59;4955348;29;20213;-83
2021/11/07 03:22:36;;;;;;;9.13;8.13;;;;;;;4.65;79.38;96213.47;4954650;28;20236;-81
2021/11/07 03:25:04;;;;;;;8.70;7.80;;;;;;;4.51;79.81;96213.78;4955504;29;20232;-84
2021/11/07 03:27:37;;;;;;;8.10;7.30;;;;;;;4.69;79.53;96214.84;4954754;29;20243;-82
2021/11/07 03:30:14;;;;;;;8.40;7.60;;;;;;;4.74;78.04;96224.69;4954133;29;20223;-82
2021/11/07 03:32:42;;;;;;;8.50;7.70;;;;;;;4.77;78.07;96237.19;4954921;29;20211;-82
2021/11/07 03:35:16;;;;;;;8.77;7.87;;;;;;;4.69;78.09;96226.78;4954495;29;20209;-84
2021/11/07 03:37:55;;;;;;;8.63;7.73;;;;;;;4.51;78.72;96219.69;4954616;28;20398;-80
2021/11/07 03:40:24;;;;;;;8.40;7.50;;;;;;;4.57;78.40;96232.88;4954717;29;20209;-84
2021/11/07 03:42:51;;;;;;;8.27;7.43;;;;;;;4.58;78.46;96242.16;4954597;29;20209;-83
2021/11/07 03:45:19;;;;;;;8.53;7.60;;;;;;;4.62;78.14;96244.31;4954486;29;20205;-80
2021/11/07 03:47:46;;;;;;;8.40;7.53;;;;;;;4.73;78.11;96235.81;4964047;28;20227;-83
2021/11/07 03:50:12;;;;;;;9.60;7.37;;;;;;;4.79;77.52;96225.13;4973691;28;20231;-84
2021/11/07 03:52:39;;;;;;;8.90;8.00;;;;;;;4.86;77.22;96224.47;4974008;28;20242;-83
2021/11/07 03:55:07;;;;;;;9.63;8.70;;;;;;;4.91;77.65;96219.00;4973364;28;20204;-81
2021/11/07 03:57:33;;;;;;;8.73;7.83;;;;;;;4.97;77.59;96213.41;4973550;28;20223;-83
2021/11/07 04:00:00;;;;;;;8.67;7.77;;;;;;;4.97;77.60;96212.59;4973712;28;20200;-82
2021/11/07 04:02:28;;;;;;;9.57;8.57;;;;;;;5.00;77.78;96208.06;4973622;28;20200;-84
2021/11/07 04:04:54;;;;;;;11.40;9.90;;;;;;;5.01;77.98;96203.72;4973457;28;20579;-82
2021/11/07 04:07:21;;;;;;;9.90;8.80;;;;;;;5.00;78.18;96199.59;4973360;28;20212;-84
2021/11/07 04:09:47;;;;;;;10.73;9.47;;;;;;;5.05;77.96;96193.16;4973462;28;20231;-85
2021/11/07 04:12:14;;;;;;;10.87;9.67;;;;;;;4.98;78.73;96179.31;4968255;28;20212;-84
2021/11/07 04:14:42;;;;;;;12.10;10.20;;;;;;;4.94;78.94;96177.94;4954558;29;20260;-84
2021/11/07 04:17:09;;;;;;;12.93;10.30;;;;;;;4.95;79.53;96166.78;4953658;28;20201;-82
2021/11/07 04:19:36;;;;;;;12.33;10.77;;;;;;;5.02;79.28;96165.31;4954740;29;20636;-83
2021/11/07 04:22:06;;;;;;;13.07;11.10;;;;;;;5.05;79.39;96157.41;4954312;29;20227;-83
2021/11/07 04:24:34;;;;;;;13.10;10.97;;;;;;;5.03;79.34;96156.75;4954178;28;20283;-83
2021/11/07 04:27:01;;;;;;;13.10;10.73;;;;;;;5.10;79.49;96164.69;4954886;29;20208;-84
2021/11/07 04:29:28;;;;;;;13.17;11.37;;;;;;;5.14;78.71;96166.88;4953827;28;20237;-84
2021/11/07 04:31:55;;;;;;;13.33;11.33;;;;;;;5.13;79.07;96164.44;4955233;28;20212;-85
2021/11/07 04:34:22;;;;;;;12.87;10.93;;;;;;;5.07;78.97;96175.16;4954522;29;20205;-82
2021/11/07 04:36:50;;;;;;;14.67;11.07;;;;;;;5.00;79.81;96164.69;4955253;28;20200;-80
2021/11/07 04:39:17;;;;;;;11.73;10.40;;;;;;;5.02;79.50;96167.06;4955009;29;20240;-82
2021/11/07 04:41:45;;;;;;;12.60;10.60;;;;;;;4.93;80.20;96163.56;4954884;29;20212;-84
2021/11/07 04:44:11;;;;;;;11.63;10.30;;;;;;;4.84;80.04;96169.41;4954455;29;20696;-82
2021/11/07 04:46:38;;;;;;;11.70;10.20;;;;;;;4.80;80.21;96171.44;4954893;28;20205;-84
2021/11/07 04:49:05;;;;;;;12.73;10.33;;;;;;;4.85;79.92;96161.63;4973705;28;20216;-82
2021/11/07 04:51:32;;;;;;;11.67;10.13;;;;;;;4.91;79.40;96165.44;4973676;28;20252;-83
2021/11/07 04:54:00;;;;;;;11.40;10.13;;;;;;;4.96;78.60;96162.50;4973577;28;20660;-82
2021/11/07 04:56:27;;;;;;;11.03;9.57;;;;;;;4.92;78.47;96167.03;4973809;28;20210;-84
2021/11/07 04:58:53;;;;;;;11.27;10.07;;;;;;;4.97;78.03;96170.03;4973548;28;20230;-85
2021/11/07 05:01:20;;;;;;;10.87;9.77;;;;;;;5.01;77.64;96185.88;4973340;28;20204;-82
2021/11/07 05:03:47;;;;;;;11.77;9.70;;;;;;;5.05;77.34;96182.94;4972729;28;20716;-82
2021/11/07 05:06:13;;;;;;;10.80;9.47;;;;;;;5.08;77.23;96187.00;4973225;28;20572;-81
2021/11/07 05:08:40;;;;;;;10.77;9.67;;;;;;;5.12;76.98;96196.00;4973662;28;20224;-84
2021/11/07 05:11:08;;;;;;;12.30;9.67;;;;;;;5.04;76.71;96191.53;4973455;28;20224;-85
2021/11/07 05:13:34;;;;;;;11.13;9.90;;;;;;;5.03;76.26;96202.69;4957020;28;20209;-83
2021/11/07 05:16:01;;;;;;;10.93;9.43;;;;;;;4.99;76.47;96203.06;4954295;29;20301;-80
2021/11/07 05:18:28;;;;;;;10.80;9.07;;;;;;;4.98;76.82;96204.81;4953280;28;20743;-83
2021/11/07 05:20:54;;;;;;;10.30;9.23;;;;;;;4.96;76.60;96199.03;4953939;29;20197;-82
2021/11/07 05:23:21;;;;;;;10.17;9.17;;;;;;;4.96;76.33;96200.78;4971317;28;20302;-82
2021/11/07 05:25:48;;;;;;;10.10;9.10;;;;;;;4.93;76.69;96195.91;4973651;28;20204;-84
2021/11/07 05:28:16;;;;;;;11.27;10.03;;;;;;;4.96;76.62;96204.13;4973065;28;20224;-85
2021/11/07 05:30:44;;;;;;;10.70;9.60;;;;;;;4.96;76.24;96188.81;4975868;28;20454;-85
2021/11/07 05:33:11;;;;;;;9.80;8.80;;;;;;;4.99;76.30;96190.31;4976487;28;20208;-80
2021/11/07 05:35:38;;;;;;;9.43;8.43;;;;;;;5.00;76.07;96177.44;4977284;28;20239;-85
2021/11/07 05:38:04;;;;;;;10.70;9.43;;;;;;;5.01;76.13;96171.38;4976915;28;20394;-84
2021/11/07 05:40:31;;;;;;;10.67;9.00;;;;;;;5.04;75.67;96180.50;4977073;28;20204;-82
2021/11/07 05:42:58;;;;;;;10.13;8.80;;;;;;;5.02;75.43;96187.50;4970691;28;20263;-84
2021/11/07 05:45:26;;;;;;;9.73;8.70;;;;;;;5.02;75.46;96184.94;4957705;29;20657;-85
2021/11/07 05:47:53;;;;;;;9.80;8.80;;;;;;;5.01;75.00;96184.13;4968017;28;20743;-85
2021/11/07 05:50:21;;;;;;;9.27;8.33;;;;;;;4.97;75.09;96192.19;4976484;28;20235;-83
2021/11/07 05:52:48;;;;;;;10.60;8.97;;;;;;;4.89;74.74;96197.91;4976947;28;20211;-84
2021/11/07 05:55:15;;;;;;;9.00;8.10;;;;;;;4.87;75.41;96192.13;4976551;28;20231;-83
2021/11/07 05:57:42;;;;;;;9.47;8.40;;;;;;;4.86;75.04;96183.66;4976880;28;20675;-82
2021/11/07 06:00:12;;;;;;;8.93;8.10;;;;;;;4.77;75.23;96168.31;4976989;28;20207;-84
2021/11/07 06:02:40;;;;;;;10.23;8.70;;;;;;;4.76;75.51;96169.25;4976388;28;20212;-85
2021/11/07 06:05:08;;;;;;;9.47;8.43;;;;;;;4.70;75.74;96180.75;4976193;28;20204;-82
2021/11/07 06:07:35;;;;;;;8.67;7.77;;;;;;;4.70;75.82;96168.00;4976204;28;20317;-83
2021/11/07 06:10:02;;;;;;;9.50;8.50;;;;;;;4.59;76.69;96165.53;4976653;28;20223;-85
2021/11/07 06:12:28;;;;;;;10.00;8.00;;;;;;;4.64;76.72;96137.91;4976023;28;20238;-83
2021/11/07 06:14:55;;;;;;;9.90;8.20;;;;;;;4.66;76.69;96118.19;4958552;28;20212;-84
2021/11/07 06:17:22;;;;;;;8.97;8.07;;;;;;;4.54;76.76;96110.75;4956413;28;20211;-84
2021/11/07 06:19:49;;;;;;;10.17;8.63;;;;;;;4.56;76.93;96102.03;4958499;28;20201;-82
2021/11/07 06:22:16;;;;;;;9.30;8.30;;;;;;;4.58;77.01;96102.72;4956364;28;20212;-83
2021/11/07 06:24:45;;;;;;;8.43;7.53;;;;;;;4.49;76.96;96078.78;4956086;28;20720;-82
2021/11/07 06:27:12;;;;;;;9.43;8.03;;;;;;;4.37;76.91;96061.16;4971894;28;20208;-83
2021/11/07 06:29:40;;;;;;;11.23;9.47;;;;;;;4.24;77.72;96080.91;4976782;28;20204;-81
2021/11/07 06:32:08;;;;;;;12.50;9.97;;;;;;;4.25;78.24;96098.63;4976130;28;20291;-82
2021/11/07 06:34:36;;;;;;;11.30;10.00;;;;;;;4.21;79.03;96117.66;4975828;28;20215;-82
2021/11/07 06:37:05;;;;;;;17.67;9.23;;;;;;;4.72;99.40;96124.53;4976532;28;20228;-81
2021/11/07 06:39:32;;;;;;;11.70;9.53;;;;;;;4.88;79.96;96131.69;4956576;28;20256;-84
2021/11/07 06:41:58;;;;;;;10.70;9.60;;;;;;;4.80;78.12;96129.81;4956059;28;20228;-85
2021/11/07 06:44:25;;;;;;;11.50;10.13;;;;;;;4.77;77.83;96155.56;4955717;29;20215;-84
2021/11/07 06:46:51;;;;;;;12.27;10.37;;;;;;;4.68;78.99;96169.88;4956229;29;20205;-84
2021/11/07 06:49:18;;;;;;;14.40;10.57;;;;;;;4.65;79.24;96165.00;4955594;28;20256;-84
2021/11/07 06:51:45;;;;;;;13.13;11.23;;;;;;;4.56;79.59;96162.41;4967714;28;20310;-84
2021/11/07 06:54:14;;;;;;;13.40;10.93;;;;;;;4.63;79.24;96163.53;4974649;28;20207;-82
2021/11/07 06:56:41;;;;;;;12.53;10.47;;;;;;;4.36;80.26;96169.94;4974505;28;20196;-84
2021/11/07 06:59:08;;;;;;;13.27;11.37;;;;;;;4.40;80.40;96173.88;4974846;28;20224;-84
2021/11/07 07:01:37;;;;;;;11.67;10.23;;;;;;;4.40;80.35;96191.72;4975049;28;20223;-83
2021/11/07 07:04:04;;;;;;;13.13;11.47;;;;;;;4.51;79.97;96201.03;4976679;28;20208;-84
2021/11/07 07:06:32;;;;;;;13.40;11.40;;;;;;;4.51;80.28;96195.94;4980479;28;20216;-82
2021/11/07 07:09:02;;;;;;;11.70;10.47;;;;;;;4.62;79.71;96202.72;4977102;28;20275;-84
2021/11/07 07:11:34;;;;;;;13.57;11.40;;;;;;;4.69;80.78;96186.78;4975387;28;20259;-85
2021/11/07 07:14:05;;;;;;;11.83;10.50;;;;;;;4.77;79.55;96186.16;4964439;28;20232;-83
2021/11/07 07:16:42;;;;;;;12.63;10.73;;;;;;;4.74;79.16;96186.41;4953746;28;20205;-81
2021/11/07 07:19:26;;;;;;;13.97;11.20;;;;;;;4.83;79.03;96181.34;4954474;28;20232;-82
2021/11/07 07:22:06;;;;;;;12.87;11.50;;;;;;;4.83;78.75;96171.16;4966577;28;20715;-82
2021/11/07 07:24:48;;;;;;;12.30;11.00;;;;;;;4.94;78.34;96172.84;4974128;28;20239;-82
2021/11/07 07:32:53;;;;;;;14.03;11.57;;;;;;;5.04;78.44;96168.56;4972422;28;20203;-83
2021/11/07 07:35:25;;;;;;;13.90;11.80;;;;;;;5.03;78.34;96171.25;4973757;28;20214;-82
2021/11/07 07:37:51;;;;;;;14.10;11.93;;;;;;;5.08;77.75;96164.03;4973467;28;20250;-84
2021/11/07 07:40:18;;;;;;;13.00;11.17;;;;;;;5.18;77.54;96165.69;4973931;28;20208;-83
2021/11/07 07:42:47;;;;;;;14.43;11.30;;;;;;;5.21;77.75;96162.03;4974910;28;20688;-84
2021/11/07 07:45:14;;;;;;;14.17;11.53;;;;;;;5.26;77.50;96152.25;4974110;28;20231;-84
2021/11/07 07:47:42;;;;;;;12.63;10.73;;;;;;;5.30;77.27;96140.84;4974768;28;20224;-84
2021/11/07 07:50:10;;;;;;;13.73;12.17;;;;;;;5.39;77.42;96144.34;4974305;28;20301;-85
2021/11/07 07:52:37;;;;;;;12.87;11.00;;;;;;;5.37;77.08;96128.38;4973608;28;20263;-84
2021/11/07 07:55:05;;;;;;;14.13;11.67;;;;;;;5.76;75.95;96119.84;4973843;28;20216;-84
2021/11/07 07:57:31;;;;;;;12.20;10.90;;;;;;;6.03;74.16;96121.75;4974296;28;20228;-82
2021/11/07 07:59:59;;;;;;;11.40;10.20;;;;;;;6.33;72.63;96108.00;4974784;28;20246;-82
2021/11/07 08:02:26;;;;;;;11.33;9.83;;;;;;;6.63;71.66;96106.97;4974364;28;20201;-83
2021/11/07 08:04:53;;;;;;;12.30;10.37;;;;;;;6.91;69.25;96108.66;4974056;28;20235;-83
2021/11/07 08:07:19;;;;;;;11.97;9.53;;;;;;;7.06;68.49;96105.63;4973346;28;20824;-84
2021/11/07 08:09:46;;;;;;;10.07;9.07;;;;;;;7.42;68.43;96104.75;4974228;28;20827;-85
2021/11/07 08:12:13;;;;;;;10.60;9.47;;;;;;;7.63;67.00;96095.03;4973487;28;20238;-82
2021/11/07 08:14:39;;;;;;;10.13;9.00;;;;;;;7.76;66.70;96099.00;4954242;28;20209;-85
2021/11/07 08:17:07;;;;;;;9.67;8.67;;;;;;;7.88;66.01;96085.00;4953927;29;20205;-85
2021/11/07 08:19:33;;;;;;;10.63;9.53;;;;;;;7.82;64.66;96091.53;4955108;28;20224;-85
2021/11/07 08:22:00;;;;;;;9.73;8.73;;;;;;;7.77;65.01;96086.03;4954261;29;20204;-84
2021/11/07 08:24:27;;;;;;;9.20;8.30;;;;;;;7.98;65.74;96078.84;4954060;28;20271;-84
2021/11/07 08:26:54;;;;;;;8.43;7.63;;;;;;;8.05;64.04;96079.06;4954487;29;20231;-85
2021/11/07 08:29:21;;;;;;;8.93;8.07;;;;;;;8.20;63.36;96077.56;4954836;28;20262;-81
2021/11/07 08:31:51;;;;;;;8.73;7.83;;;;;;;8.24;63.53;96067.81;4954710;29;20228;-84
2021/11/07 08:34:23;;;;;;;9.70;7.73;;;;;;;8.35;64.00;96080.41;4954316;29;20296;-83
2021/11/07 08:36:55;;;;;;;7.47;6.77;;;;;;;8.42;63.65;96065.25;4954023;29;20205;-84
2021/11/07 08:39:23;;;;;;;7.80;7.00;;;;;;;8.34;66.56;96071.09;4954554;28;20632;-84
2021/11/07 08:41:55;;;;;;;7.77;7.07;;;;;;;8.31;62.76;96069.63;4954464;29;20802;-83
2021/11/07 09:00:50;;;;;;;7.23;5.97;;;;;;;9.73;57.79;96052.69;4953961;29;20196;-83
2021/11/07 09:03:20;;;;;;;6.03;5.53;;;;;;;9.53;56.53;96043.66;4960259;28;20873;-82
2021/11/07 09:05:57;;;;;;;5.47;4.97;;;;;;;9.19;56.39;96036.06;4976553;28;20264;-84
2021/11/07 09:08:24;;;;;;;5.60;5.10;;;;;;;9.33;57.03;96025.97;4977509;28;20234;-84
2021/11/07 09:10:53;;;;;;;5.60;5.10;;;;;;;9.20;56.11;96025.63;4977071;28;20251;-85
2021/11/07 09:13:19;;;;;;;6.00;5.47;;;;;;;9.17;56.74;96014.84;4972469;28;20328;-84
2021/11/07 09:15:49;;;;;;;6.83;4.97;;;;;;;9.13;56.19;96004.09;4957925;29;20207;-85
2021/11/07 09:18:16;;;;;;;6.30;4.77;;;;;;;9.20;56.36;95999.94;4957464;28;20235;-81
2021/11/07 09:20:49;;;;;;;5.00;4.50;;;;;;;9.36;55.74;95988.88;4957803;29;20209;-80
2021/11/07 09:23:20;;;;;;;4.67;4.27;;;;;;;9.57;55.44;95985.84;4974441;28;20231;-83
2021/11/07 09:25:49;;;;;;;4.43;4.03;;;;;;;9.87;54.97;95966.38;4977006;28;20196;-81
2021/11/07 09:28:21;;;;;;;4.57;4.10;;;;;;;10.06;54.10;95958.31;4975746;28;20778;-85
2021/11/07 09:30:57;;;;;;;4.57;4.17;;;;;;;10.12;53.26;95952.50;4975210;28;20200;-83
2021/11/07 09:33:29;;;;;;;4.23;3.90;;;;;;;10.01;53.75;95948.50;4976865;28;20227;-84
2021/11/07 09:36:13;;;;;;;3.93;3.53;;;;;;;10.07;53.33;95933.38;4976506;28;20204;-82
2021/11/07 09:38:48;;;;;;;4.10;3.70;;;;;;;10.12;52.79;95929.34;4976657;28;20268;-84
2021/11/07 09:41:21;;;;;;;4.80;3.67;;;;;;;10.17;52.49;95939.16;4973779;28;20291;-81
2021/11/07 09:43:51;;;;;;;3.90;3.60;;;;;;;10.00;51.85;95928.91;4957102;29;20587;-83
2021/11/07 09:46:29;;;;;;;4.30;3.40;;;;;;;9.95;52.35;95933.75;4957651;29;20228;-82
2021/11/07 09:48:59;;;;;;;3.60;3.30;;;;;;;10.04;51.96;95922.44;4957233;28;20236;-82
2021/11/07 09:51:32;;;;;;;2.77;2.57;;;;;;;9.85;51.47;95924.59;4956272;29;20224;-82
2021/11/07 09:54:00;;;;;;;3.27;3.00;;;;;;;9.89;52.24;95931.00;4957446;29;20240;-85
2021/11/07 09:56:27;;;;;;;3.47;3.17;;;;;;;9.96;52.14;95926.84;4957085;28;20205;-84
2021/11/07 09:58:55;;;;;;;3.10;2.80;;;;;;;10.05;51.13;95925.81;4959066;29;20260;-83
2021/11/07 10:01:23;;;;;;;2.77;2.57;;;;;;;10.18;50.76;95920.19;4957313;28;20205;-80
2021/11/07 10:03:51;;;;;;;4.03;2.77;;;;;;;10.13;49.22;95925.03;4956497;29;20292;-82
2021/11/07 10:06:27;;;;;;;2.97;2.67;;;;;;;10.26;49.12;95928.69;4956162;28;20201;-84
2021/11/07 10:08:54;;;;;;;2.70;2.50;;;;;;;10.47;49.27;95932.50;4956559;29;20224;-84
2021/11/07 10:11:26;;;;;;;3.17;2.33;;;;;;;10.59;48.93;95920.84;4974666;28;20587;-84
2021/11/07 10:14:05;;;;;;;7.93;6.20;;;;;;;10.68;48.81;95923.22;4967062;28;20232;-82
2021/11/07 10:16:38;;;;;;;2.60;2.40;;;;;;;10.54;48.20;95936.00;4956265;28;20197;-85
2021/11/07 10:19:17;;;;;;;2.33;2.13;;;;;;;10.51;49.08;95932.00;4937901;29;20225;-84
2021/11/07 10:21:48;;;;;;;2.23;2.03;;;;;;;10.51;47.58;95934.56;4936645;29;20229;-85
2021/11/07 10:24:19;;;;;;;2.10;1.90;;;;;;;10.46;48.12;95939.41;4936376;29;20268;-84
2021/11/07 10:26:54;;;;;;;3.13;1.80;;;;;;;10.34;47.55;95940.75;4936829;29;20205;-83
2021/11/07 10:29:30;;;;;;;2.30;2.10;;;;;;;10.28;47.51;95941.41;4937015;29;20221;-85
2021/11/07 10:32:02;;;;;;;2.50;2.30;;;;;;;10.09;48.11;95950.28;4936249;29;20244;-84
2021/11/07 10:34:47;;;;;;;4.27;2.13;;;;;;;10.07;48.54;95949.63;4937130;29;20215;-85
2021/11/07 10:43:23;;;;;;;2.30;2.10;;;;;;;10.22;48.96;95927.41;4920430;29;20204;-84
2021/11/07 10:52:19;;;;;;;2.37;2.17;;;;;;;10.15;48.87;95887.88;5089280;28;20203;-84
2021/11/07 10:54:46;;;;;;;2.33;2.13;;;;;;;10.14;48.71;95880.31;5089854;28;20228;-85
2021/11/07 10:57:19;;;;;;;2.50;2.30;;;;;;;10.00;49.00;95869.75;5089660;28;20206;-85
2021/11/07 11:00:09;;;;;;;2.10;1.90;;;;;;;10.04;49.18;95855.56;5089742;28;20200;-85
2021/11/07 11:02:38;;;;;;;2.57;2.37;;;;;;;9.91;49.40;95865.59;5089024;28;20294;-84
2021/11/07 11:05:09;;;;;;;2.20;2.10;;;;;;;9.80;49.76;95871.09;5089878;28;20196;-84
2021/11/07 11:07:50;;;;;;;2.50;2.30;;;;;;;9.86;49.73;95874.75;5089434;28;20228;-83
2021/11/07 11:10:19;;;;;;;2.23;2.00;;;;;;;10.11;49.70;95893.50;5088930;28;20200;-84
2021/11/07 11:13:20;;;;;;;2.40;2.20;;;;;;;10.53;48.74;95868.28;5087961;28;20574;-83
2021/11/07 11:15:58;;;;;;;2.20;2.00;;;;;;;10.83;48.12;95866.63;5084954;28;20302;-83
2021/11/07 11:18:35;;;;;;;2.17;1.97;;;;;;;10.98;47.58;95867.50;5088465;28;20263;-83
2021/11/07 11:21:25;;;;;;;3.00;1.97;;;;;;;10.94;47.12;95865.44;5088669;28;20200;-81
2021/11/07 11:24:05;;;;;;;2.67;1.80;;;;;;;11.14;47.64;95866.59;5075670;27;20256;-83
2021/11/07 11:26:46;;;;;;;2.03;1.83;;;;;;;11.50;47.67;95871.94;5068211;28;20196;-84
2021/11/07 11:29:29;;;;;;;1.90;1.80;;;;;;;11.76;46.88;95879.28;5067596;28;20225;-81
2021/11/07 11:32:00;;;;;;;1.90;1.70;;;;;;;11.58;45.41;95871.84;5067913;28;20201;-83
2021/11/07 11:34:30;;;;;;;1.77;1.67;;;;;;;11.16;46.06;95866.44;5068246;28;20205;-84
2021/11/07 11:37:03;;;;;;;1.87;1.73;;;;;;;11.11;46.98;95869.50;5067938;28;20204;-85
2021/11/07 11:39:35;;;;;;;1.97;1.77;;;;;;;11.40;46.25;95866.22;5068329;28;20225;-83
2021/11/07 11:42:06;;;;;;;1.77;1.63;;;;;;;11.67;45.93;95868.22;5068256;28;20291;-83
2021/11/07 11:44:34;;;;;;;2.40;1.60;;;;;;;11.81;45.45;95876.19;5068481;28;20781;-82
2021/11/07 11:47:14;;;;;;;1.83;1.60;;;;;;;12.00;44.90;95883.41;5068435;28;20225;-84
2021/11/07 11:50:01;;;;;;;1.67;1.50;;;;;;;12.14;44.34;95867.09;5069039;28;20227;-83
2021/11/07 11:52:43;;;;;;;2.20;2.00;;;;;;;12.39;44.35;95862.47;5068933;28;20227;-81
2021/11/07 11:58:29;;;;;;;2.73;1.70;;;;;;;12.38;43.39;95832.44;5067037;28;20217;-86
2021/11/07 12:01:03;;;;;;;1.83;1.50;;;;;;;12.29;43.32;95813.69;5054814;28;20609;-83
2021/11/07 12:03:39;;;;;;;1.90;1.80;;;;;;;12.19;42.88;95808.00;5055595;28;20631;-83
2021/11/07 12:06:26;;;;;;;1.70;1.60;;;;;;;12.33;43.47;95791.66;5054796;28;20209;-83
2021/11/07 12:09:38;;;;;;;1.90;1.80;;;;;;;12.42;43.74;95775.09;5054430;28;20260;-85
2021/11/07 12:12:11;;;;;;;1.97;1.83;;;;;;;12.55;43.06;95778.78;5034258;28;20205;-84
2021/11/07 12:14:55;;;;;;;1.93;1.80;;;;;;;12.64;42.53;95783.66;5049528;28;20719;-82
2021/11/07 12:17:28;;;;;;;1.97;1.80;;;;;;;12.78;43.02;95766.50;5051017;28;20194;-82
2021/11/07 12:19:54;;;;;;;2.57;1.83;;;;;;;12.80;42.41;95767.13;5042793;28;20229;-85
2021/11/07 12:22:32;;;;;;;1.83;1.73;;;;;;;12.86;42.18;95763.00;5053589;28;20818;-84
2021/11/07 12:25:08;;;;;;;2.10;1.90;;;;;;;13.06;41.73;95759.59;5054527;28;20224;-85
2021/11/07 12:27:41;;;;;;;2.10;1.90;;;;;;;13.27;42.14;95757.97;5054065;28;20221;-85
2021/11/07 12:30:24;;;;;;;2.10;1.80;;;;;;;13.40;41.17;95761.44;5053789;28;20209;-83
2021/11/07 12:33:01;;;;;;;1.97;1.70;;;;;;;13.27;40.57;95753.59;5054173;28;20208;-85